Aeroporto :
LOGIN :

Iscrizione | Disclaimer

   EN    FR    IT 

 










Sommario :    VFR   VFR Marginale   IFR   IFR Intensivo   IFR Molto Intensivo
Visibilità : 
Base nubi : 
>= 8 km
>= 3000ft
5 / 8 km
1000 / 3000 ft
1500m / 5 km
500 / 1000 ft
800 / 1500m
200 / 500 ft
< 800m
< 200 ft
Simboli :   Temporali  Nebbia  Neve Forte  Precipitazioni Forti  Vento > 20 kt
SIGMETs :   Varie  Temporali  Ghiacco  Turbolenza  Onda orograficha  Ceneri Vulcaniche






- Altitudine del aeroporto : 489 ft
- Codice IATA : GDN


EPGD - Gdansk

ULTIMO METAR :
  • 041000Z 28017KT 9999 SCT040 08/M04 Q1023

METARs OBSOLETI :
  • 040930Z 29016KT 9999 BKN040 06/M04 Q1023
  • 040900Z 30019KT 9999 FEW037 07/M03 Q1022
  • 040830Z 28018KT CAVOK 06/M03 Q1022
  • 040800Z 28016KT CAVOK 05/M02 Q1021
  • 040730Z 29018KT CAVOK 05/M02 Q1021

TAF TAF EPGD
Valido dal 04 a 06 ore il 05 a 06 ore UTC


040530Z 0406/0506 27010KT CAVOK
PROB40
TEMPO 0408/0416 30015G25KT SCT033TCU
BECMG 0416/0419 21006KT
PROB40 0420/0506 4000 BR



MetMap, La meteo Aeronautica in un colpo d'occhio ! - Copyright ORBIFLY Dicembre 2007 - Disclaimer

ORBIFLY MET'MAP TEAM :

Programmazione e sviluppo : Alexandra Zaïnal
Concezione : Baudouin d'Aumeries
Aiuto per la programmazione : Marc-Olivier Méhu
Supporto tecnico e logistico : Manuel Goepfert
Aiuto per la traduzione : Arnaldo La Scala

Contatto : metmap@orbifly.com




FONTI E CREDITI :

   NOAA